Time;durP1;ratioP1;P1;durP2;ratioP2;P2;SDS_P1;SDS_P2;PMS_P1;PMS_P2;Temp;Humidity;BMP_temperature;BMP_pressure;BME280_temperature;BME280_humidity;BME280_pressure;Samples;Min_cycle;Max_cycle;Signal;HPM_P1;HPM_P2
2024/02/14 00:00:53;;;;;;;9.20;4.82;;;;;;;9.05;66.23;101591.25;5032007;27;98326;-76
2024/02/14 00:03:21;;;;;;;9.07;4.63;;;;;;;9.00;66.62;101586.03;5036099;27;96854;-70
2024/02/14 00:05:47;;;;;;;8.90;4.30;;;;;;;8.95;66.29;101579.97;5031431;27;97598;-70
2024/02/14 00:08:14;;;;;;;6.97;4.20;;;;;;;9.02;65.57;101578.97;5037936;27;98825;-71
2024/02/14 00:10:41;;;;;;;7.85;4.75;;;;;;;9.09;65.28;101571.84;5039498;27;96800;-70
2024/02/14 00:13:08;;;;;;;9.77;4.82;;;;;;;9.02;65.54;101572.84;5038550;27;97157;-70
2024/02/14 00:15:36;;;;;;;9.85;4.88;;;;;;;9.04;65.70;101579.84;5034442;27;99039;-70
2024/02/14 00:18:02;;;;;;;10.73;5.05;;;;;;;9.15;64.86;101585.81;5039493;27;99205;-71
2024/02/14 00:20:29;;;;;;;12.25;5.50;;;;;;;8.94;65.55;101578.22;5031383;27;97777;-70
2024/02/14 00:22:55;;;;;;;6.82;4.65;;;;;;;8.92;65.60;101580.03;5029621;27;97294;-69
2024/02/14 00:25:21;;;;;;;10.95;5.22;;;;;;;8.89;65.92;101584.47;5032734;27;100363;-70
2024/02/14 00:27:48;;;;;;;8.65;4.88;;;;;;;8.93;66.13;101587.03;5030368;27;96766;-70
2024/02/14 00:30:14;;;;;;;9.75;4.95;;;;;;;8.85;65.99;101582.78;5027691;27;97449;-70
2024/02/14 00:32:42;;;;;;;10.10;4.80;;;;;;;8.98;65.49;101586.97;5024071;27;99177;-70
2024/02/14 00:35:09;;;;;;;8.48;4.65;;;;;;;9.03;65.46;101577.22;5037687;27;99272;-70
2024/02/14 00:37:35;;;;;;;7.97;5.30;;;;;;;8.97;65.82;101583.47;5031820;27;98887;-70
2024/02/14 00:40:02;;;;;;;9.60;4.55;;;;;;;9.07;65.45;101582.41;5039496;27;96879;-70
2024/02/14 00:42:28;;;;;;;8.45;4.57;;;;;;;9.04;64.99;101577.19;5036950;27;97168;-70
2024/02/14 00:44:54;;;;;;;10.55;4.88;;;;;;;9.11;64.86;101585.88;5035882;27;98863;-71
2024/02/14 00:47:21;;;;;;;10.73;4.93;;;;;;;9.03;64.95;101582.50;5034450;27;99170;-70
2024/02/14 00:49:48;;;;;;;9.40;4.70;;;;;;;8.85;65.36;101581.03;5021702;27;97208;-70
2024/02/14 00:52:16;;;;;;;11.48;5.32;;;;;;;9.22;65.14;101583.06;5029841;27;96936;-69
2024/02/14 00:54:42;;;;;;;9.63;5.25;;;;;;;9.19;64.65;101586.59;5034334;27;98999;-70
2024/02/14 00:57:09;;;;;;;10.45;5.28;;;;;;;9.23;64.64;101584.81;5040247;27;99725;-70
2024/02/14 00:59:35;;;;;;;7.70;4.78;;;;;;;9.22;64.63;101593.59;5030767;27;97794;-70
2024/02/14 01:02:02;;;;;;;9.60;5.60;;;;;;;9.24;64.80;101591.81;5036801;27;96970;-69
2024/02/14 01:04:28;;;;;;;12.18;5.30;;;;;;;9.00;64.98;101593.94;5022021;27;98903;-69
2024/02/14 01:06:56;;;;;;;10.30;5.50;;;;;;;8.84;66.06;101588.94;5038284;27;101084;-69
2024/02/14 01:09:22;;;;;;;9.88;5.30;;;;;;;8.93;66.07;101591.41;5030922;27;99239;-69
2024/02/14 01:11:49;;;;;;;11.15;5.47;;;;;;;8.80;66.25;101594.25;5033264;27;98412;-69
2024/02/14 01:14:15;;;;;;;9.20;5.30;;;;;;;8.86;66.38;101590.66;5034364;27;97987;-69
2024/02/14 01:16:45;;;;;;;13.70;5.95;;;;;;;8.69;66.57;101579.50;5032445;27;99234;-69
2024/02/14 01:19:11;;;;;;;8.07;4.93;;;;;;;8.59;66.92;101580.53;5030587;27;97799;-70
2024/02/14 01:21:37;;;;;;;11.35;5.85;;;;;;;8.59;67.48;101575.25;5028458;27;98831;-69
2024/02/14 01:24:05;;;;;;;;;;;;;;;8.76;66.80;101581.16;5036457;27;99614;-70
2024/02/14 01:26:32;;;;;;;8.70;5.10;;;;;;;8.67;66.30;101576.00;5027560;27;98788;-69
2024/02/14 01:29:00;;;;;;;9.07;4.97;;;;;;;8.63;67.13;101579.59;5033692;27;98769;-70
2024/02/14 01:31:27;;;;;;;7.32;4.90;;;;;;;8.65;67.13;101567.28;5031331;27;97152;-70
2024/02/14 01:33:54;;;;;;;8.25;5.13;;;;;;;8.81;66.47;101563.50;5030184;27;99247;-69
2024/02/14 01:36:20;;;;;;;9.85;4.68;;;;;;;8.76;66.55;101574.13;5040613;27;98791;-69
2024/02/14 01:38:46;;;;;;;9.25;4.97;;;;;;;8.63;67.25;101567.28;5037249;27;96749;-69
2024/02/14 01:41:14;;;;;;;8.63;5.70;;;;;;;8.72;67.03;101558.38;5028711;27;97195;-70
2024/02/14 01:43:40;;;;;;;7.90;4.90;;;;;;;8.58;67.11;101560.34;5032522;27;98963;-69
2024/02/14 01:46:07;;;;;;;9.73;5.18;;;;;;;8.67;66.98;101554.91;5036052;27;98755;-69
2024/02/14 01:48:35;;;;;;;14.38;5.95;;;;;;;8.80;66.75;101554.72;5033431;27;97136;-71
2024/02/14 01:51:03;;;;;;;8.18;5.15;;;;;;;8.62;67.18;101562.91;5021637;27;97401;-71
2024/02/14 01:53:31;;;;;;;10.13;5.38;;;;;;;8.62;66.95;101551.50;5034992;27;98916;-71
2024/02/14 01:55:58;;;;;;;11.32;5.05;;;;;;;8.86;66.57;101548.47;5038467;27;98965;-70
2024/02/14 01:58:26;;;;;;;10.40;4.88;;;;;;;8.92;66.15;101552.81;5029158;27;98570;-71
2024/02/14 02:00:55;;;;;;;9.88;5.22;;;;;;;8.86;66.16;101558.19;5031151;27;96770;-71
2024/02/14 02:04:18;;;;;;;11.82;5.35;;;;;;;8.76;66.82;101554.78;5033613;27;99182;-71
2024/02/14 02:06:44;;;;;;;8.70;4.70;;;;;;;8.77;66.91;101548.63;5024218;27;99657;-69
2024/02/14 02:09:11;;;;;;;10.35;5.32;;;;;;;8.82;66.33;101549.44;5036346;27;96836;-70
2024/02/14 02:11:43;;;;;;;9.85;4.93;;;;;;;8.70;66.99;101541.72;5033965;27;97186;-70
2024/02/14 02:14:12;;;;;;;7.13;4.80;;;;;;;8.69;67.38;101538.22;5028869;27;98788;-69
2024/02/14 02:16:39;;;;;;;8.55;5.20;;;;;;;8.51;67.80;101534.97;5026502;27;98384;-70
2024/02/14 02:19:08;;;;;;;9.77;5.07;;;;;;;8.52;68.23;101534.09;5031452;27;97282;-69
2024/02/14 02:21:35;;;;;;;9.75;5.03;;;;;;;8.54;67.86;101534.91;5031155;27;97299;-70
2024/02/14 02:24:02;;;;;;;10.52;5.30;;;;;;;8.75;67.20;101529.34;5035029;27;98936;-70
2024/02/14 02:26:29;;;;;;;10.82;5.25;;;;;;;8.62;67.12;101533.91;5031464;27;99318;-70
2024/02/14 02:28:54;;;;;;;8.93;4.47;;;;;;;8.79;66.70;101523.13;5035682;27;96757;-70
2024/02/14 02:31:21;;;;;;;;;;;;;;;8.68;67.31;101533.81;5034180;27;97246;-70
2024/02/14 02:33:47;;;;;;;8.43;5.13;;;;;;;8.87;66.38;101529.13;5038351;27;98878;-71
2024/02/14 02:36:16;;;;;;;8.95;5.18;;;;;;;8.79;66.63;101531.03;5031764;27;102062;-70
2024/02/14 02:38:42;;;;;;;6.60;4.53;;;;;;;8.63;67.06;101529.53;5035493;27;97058;-69
2024/02/14 02:41:10;;;;;;;8.38;5.00;;;;;;;8.60;67.11;101524.31;5027679;27;96994;-70
2024/02/14 02:43:36;;;;;;;8.15;4.63;;;;;;;8.68;67.58;101522.41;5039160;27;99101;-71
2024/02/14 02:46:03;;;;;;;8.95;4.97;;;;;;;8.39;67.99;101526.38;5028492;27;98824;-70
2024/02/14 02:48:31;;;;;;;8.63;4.72;;;;;;;8.51;67.79;101520.06;5037228;27;97113;-70
2024/02/14 02:50:58;;;;;;;8.70;4.85;;;;;;;8.55;68.15;101521.72;5027976;27;97662;-68
2024/02/14 02:53:25;;;;;;;9.55;4.57;;;;;;;8.55;67.81;101515.59;5037760;27;99124;-69
2024/02/14 02:55:54;;;;;;;7.10;4.28;;;;;;;8.63;67.14;101517.22;5035650;27;99916;-69
2024/02/14 02:58:21;;;;;;;8.50;4.88;;;;;;;8.68;67.39;101523.28;5035532;27;97376;-69
2024/02/14 03:00:49;;;;;;;7.55;4.20;;;;;;;8.49;67.96;101513.91;5025909;27;97713;-69
2024/02/14 03:03:16;;;;;;;6.78;4.57;;;;;;;8.44;68.31;101512.25;5030592;27;98890;-69
2024/02/14 03:05:44;;;;;;;6.32;4.45;;;;;;;8.38;68.57;101514.09;5030561;27;99370;-70
2024/02/14 03:08:13;;;;;;;8.70;4.47;;;;;;;8.28;68.96;101509.78;5035655;27;98317;-69
2024/02/14 03:10:40;;;;;;;6.55;4.35;;;;;;;8.38;68.11;101503.56;5034021;27;97119;-69
2024/02/14 03:13:08;;;;;;;8.30;4.50;;;;;;;8.33;68.16;101505.41;5035819;27;99385;-70
2024/02/14 03:15:36;;;;;;;8.23;4.78;;;;;;;8.36;68.21;101501.81;5032873;27;99139;-70
2024/02/14 03:18:05;;;;;;;10.68;4.78;;;;;;;8.61;67.48;101490.03;5028724;27;97240;-69
2024/02/14 03:20:32;;;;;;;7.00;4.30;;;;;;;8.58;67.77;101495.34;5036419;27;97394;-68
2024/02/14 03:22:58;;;;;;;8.25;4.47;;;;;;;8.68;67.06;101496.94;5030638;27;101842;-68
2024/02/14 03:25:25;;;;;;;7.47;4.40;;;;;;;8.68;67.48;101498.69;5042841;27;101836;-68
2024/02/14 03:27:53;;;;;;;8.50;4.18;;;;;;;8.65;67.41;101496.13;5038099;27;97719;-69
2024/02/14 03:30:20;;;;;;;7.57;4.65;;;;;;;8.65;67.45;101494.38;5027684;27;97379;-69
2024/02/14 03:32:47;;;;;;;5.38;4.43;;;;;;;8.68;66.74;101493.44;5032093;27;98801;-69
2024/02/14 03:35:14;;;;;;;10.13;5.00;;;;;;;8.57;67.25;101492.75;5033162;27;98833;-69
2024/02/14 03:37:41;;;;;;;10.77;4.95;;;;;;;8.73;67.00;101483.69;5035156;27;99306;-69
2024/02/14 03:40:09;;;;;;;7.13;4.53;;;;;;;8.74;66.57;101486.31;5036880;27;98224;-68
2024/02/14 03:42:38;;;;;;;9.10;4.30;;;;;;;8.68;67.25;101485.53;5037631;27;98795;-70
2024/02/14 03:45:05;;;;;;;6.38;4.38;;;;;;;8.79;66.80;101483.63;5035076;27;101537;-69
2024/02/14 03:47:32;;;;;;;5.93;4.43;;;;;;;8.85;66.93;101483.50;5030356;27;99175;-68
2024/02/14 03:50:00;;;;;;;6.82;4.72;;;;;;;8.89;66.32;101474.63;5027187;27;98004;-69
2024/02/14 03:52:26;;;;;;;9.07;5.68;;;;;;;8.72;67.19;101480.22;5031443;27;99003;-70
2024/02/14 03:54:53;;;;;;;9.82;4.93;;;;;;;8.75;67.14;101466.09;5029768;27;99014;-69
2024/02/14 03:57:19;;;;;;;7.25;4.13;;;;;;;8.80;66.64;101465.13;5028180;27;97143;-69
2024/02/14 03:59:47;;;;;;;11.93;5.18;;;;;;;8.66;66.97;101463.63;5037768;27;97061;-69
2024/02/14 04:02:14;;;;;;;7.55;5.18;;;;;;;8.66;67.19;101461.00;5028640;27;102066;-72
2024/02/14 04:04:43;;;;;;;7.63;4.72;;;;;;;8.49;67.92;101455.09;5034091;27;98788;-71
2024/02/14 04:07:11;;;;;;;7.55;5.38;;;;;;;8.39;68.28;101463.16;5031653;27;97629;-70
2024/02/14 04:09:37;;;;;;;9.43;4.75;;;;;;;8.45;68.27;101470.09;5036541;27;97419;-70
2024/02/14 04:12:05;;;;;;;9.13;4.80;;;;;;;8.46;68.63;101476.25;5028763;27;97727;-71
2024/02/14 04:14:32;;;;;;;8.07;4.95;;;;;;;8.60;67.91;101487.44;5033296;27;98918;-70
2024/02/14 04:16:58;;;;;;;9.80;4.80;;;;;;;8.48;68.19;101488.47;5032615;27;96789;-70
2024/02/14 04:19:24;;;;;;;6.85;4.82;;;;;;;8.40;68.71;101485.09;5026532;27;97206;-71
2024/02/14 04:21:51;;;;;;;10.98;4.90;;;;;;;8.59;68.22;101486.56;5029782;27;99110;-71
2024/02/14 04:24:18;;;;;;;9.32;4.93;;;;;;;8.51;68.05;101482.31;5045010;27;99019;-71
2024/02/14 04:26:45;;;;;;;7.82;4.50;;;;;;;8.49;68.58;101482.31;5036840;27;97396;-70
2024/02/14 04:29:11;;;;;;;8.45;4.85;;;;;;;8.52;68.23;101479.66;5035022;27;97210;-70
2024/02/14 04:31:38;;;;;;;11.75;4.97;;;;;;;8.46;68.55;101473.59;5028924;27;99218;-70
2024/02/14 04:34:05;;;;;;;13.05;5.13;;;;;;;8.45;68.77;101469.22;5039834;27;99110;-69
2024/02/14 04:36:33;;;;;;;8.05;4.93;;;;;;;8.66;67.82;101472.38;5032912;27;96789;-69
2024/02/14 04:38:59;;;;;;;6.97;4.47;;;;;;;8.53;68.20;101472.63;5032501;27;98112;-69
2024/02/14 04:41:27;;;;;;;8.15;5.05;;;;;;;8.73;67.77;101473.13;5031807;27;99142;-69
2024/02/14 04:43:53;;;;;;;9.73;5.53;;;;;;;8.73;67.63;101481.03;5034616;27;99254;-69
2024/02/14 04:46:22;;;;;;;9.85;5.43;;;;;;;8.72;67.48;101471.44;5030745;27;98581;-69
2024/02/14 04:48:48;;;;;;;11.43;5.80;;;;;;;8.73;68.02;101467.88;5037485;27;100649;-69
2024/02/14 04:51:14;;;;;;;9.77;5.20;;;;;;;8.77;67.15;101464.31;5033790;27;101873;-69
2024/02/14 04:53:41;;;;;;;10.35;5.05;;;;;;;9.00;67.04;101461.25;5032039;27;97537;-70
2024/02/14 04:56:08;;;;;;;13.10;5.72;;;;;;;8.96;66.91;101463.09;5033404;27;97195;-70
2024/02/14 04:58:36;;;;;;;6.32;5.00;;;;;;;9.08;66.31;101454.97;5031577;27;98858;-70
2024/02/14 05:01:02;;;;;;;11.55;6.00;;;;;;;8.87;67.16;101450.06;5029938;27;99020;-70
2024/02/14 05:03:28;;;;;;;10.20;5.78;;;;;;;8.96;67.08;101446.41;5030198;27;99273;-70
2024/02/14 05:05:55;;;;;;;10.13;5.22;;;;;;;9.03;66.87;101446.28;5030551;27;96803;-69
2024/02/14 05:08:21;;;;;;;14.55;5.88;;;;;;;8.94;66.67;101435.88;5032123;27;99246;-68
2024/02/14 05:10:48;;;;;;;8.43;5.10;;;;;;;9.08;66.19;101433.00;5033214;27;99244;-69
2024/02/14 05:13:15;;;;;;;10.85;5.15;;;;;;;8.85;66.82;101438.72;5033183;27;98090;-69
2024/02/14 05:15:43;;;;;;;7.68;5.28;;;;;;;9.07;66.66;101437.41;5034048;27;96858;-69
2024/02/14 05:18:10;;;;;;;10.02;4.78;;;;;;;9.07;66.66;101436.53;5031945;27;97110;-69
2024/02/14 05:20:38;;;;;;;11.88;5.60;;;;;;;9.00;66.83;101430.50;5033396;27;100793;-70
2024/02/14 05:23:04;;;;;;;8.15;5.25;;;;;;;8.98;66.88;101427.03;5023412;27;99381;-69
2024/02/14 05:25:32;;;;;;;8.00;4.95;;;;;;;8.70;67.74;101426.66;5031586;27;96858;-68
2024/02/14 05:27:59;;;;;;;8.45;5.20;;;;;;;8.85;67.35;101428.16;5029251;27;97371;-68
2024/02/14 05:30:26;;;;;;;8.63;5.10;;;;;;;8.95;67.21;101420.94;5033162;27;97654;-68
2024/02/14 05:32:53;;;;;;;10.25;5.40;;;;;;;8.96;67.54;101420.94;5030067;27;97774;-69
2024/02/14 05:35:19;;;;;;;9.55;5.07;;;;;;;9.06;66.95;101414.56;5036091;27;99809;-69
2024/02/14 05:37:49;;;;;;;9.23;5.32;;;;;;;9.00;67.00;101414.69;5031804;27;96906;-68
2024/02/14 05:40:15;;;;;;;11.23;6.32;;;;;;;8.96;67.11;101399.84;5027665;27;98816;-68
2024/02/14 05:42:43;;;;;;;9.48;5.32;;;;;;;8.91;67.64;101406.09;5027742;27;102800;-69
2024/02/14 05:45:10;;;;;;;9.55;5.40;;;;;;;9.02;66.86;101401.47;5029280;27;97088;-69
2024/02/14 05:47:37;;;;;;;12.75;5.68;;;;;;;8.94;67.06;101396.34;5029651;27;97373;-69
2024/02/14 05:50:08;;;;;;;9.93;5.45;;;;;;;8.90;67.45;101391.16;5028159;27;102073;-69
2024/02/14 05:52:35;;;;;;;8.95;5.45;;;;;;;9.10;66.77;101392.53;5024595;27;100371;-69
2024/02/14 05:55:02;;;;;;;10.02;5.60;;;;;;;8.96;67.08;101391.94;5032966;27;98428;-68
2024/02/14 05:57:28;;;;;;;11.15;5.78;;;;;;;9.00;67.16;101387.44;5037060;27;97134;-69
2024/02/14 05:59:55;;;;;;;9.13;5.80;;;;;;;8.95;67.01;101397.22;5035981;27;101750;-69
2024/02/14 06:02:21;;;;;;;10.57;5.70;;;;;;;8.96;67.14;101394.56;5034245;27;99146;-70
2024/02/14 06:04:47;;;;;;;13.40;6.50;;;;;;;9.02;67.23;101397.09;5031246;27;99210;-70
2024/02/14 06:07:15;;;;;;;8.45;5.78;;;;;;;8.83;68.11;101402.72;5035570;27;97569;-68
2024/02/14 06:09:41;;;;;;;11.75;6.13;;;;;;;8.88;67.66;101395.59;5039889;27;98661;-69
2024/02/14 06:12:08;;;;;;;10.77;5.63;;;;;;;9.02;67.05;101391.81;5031696;27;98996;-70
2024/02/14 06:14:35;;;;;;;10.55;6.03;;;;;;;9.04;67.30;101395.31;5039304;27;97336;-69
2024/02/14 06:17:01;;;;;;;9.70;5.25;;;;;;;8.85;67.67;101395.66;5034819;27;96800;-69
2024/02/14 06:19:28;;;;;;;10.68;5.97;;;;;;;8.78;68.07;101394.91;5034677;27;98907;-71
2024/02/14 06:21:54;;;;;;;11.50;5.80;;;;;;;8.83;68.12;101389.53;5032251;27;99580;-69
2024/02/14 06:24:22;;;;;;;11.57;6.70;;;;;;;8.84;67.75;101386.00;5026435;27;97041;-69
2024/02/14 06:26:49;;;;;;;10.50;6.00;;;;;;;8.95;67.99;101392.81;5034415;27;97316;-68
2024/02/14 06:29:15;;;;;;;10.20;6.30;;;;;;;8.90;67.94;101397.31;5023545;27;99225;-69
2024/02/14 06:31:42;;;;;;;11.93;6.00;;;;;;;8.74;68.62;101401.09;5033073;27;98820;-69
2024/02/14 06:34:08;;;;;;;12.48;6.13;;;;;;;8.87;68.06;101397.34;5028753;27;96727;-69
2024/02/14 06:36:35;;;;;;;10.43;6.32;;;;;;;8.74;68.68;101401.97;5032857;27;96995;-69
2024/02/14 06:39:01;;;;;;;13.00;6.43;;;;;;;8.88;68.85;101404.38;5037850;27;98993;-68
2024/02/14 06:41:29;;;;;;;10.32;6.32;;;;;;;8.87;68.76;101397.34;5030628;27;100179;-68
2024/02/14 06:43:56;;;;;;;10.90;5.70;;;;;;;8.93;68.42;101401.63;5026903;27;98521;-69
2024/02/14 06:46:22;;;;;;;11.25;5.80;;;;;;;9.07;67.82;101391.72;5032376;27;97480;-69
2024/02/14 06:48:48;;;;;;;12.15;6.03;;;;;;;9.26;67.54;101389.59;5030840;27;99077;-70
2024/02/14 06:51:15;;;;;;;19.98;6.45;;;;;;;9.08;67.85;101381.16;5028849;27;99118;-70
2024/02/14 06:53:41;;;;;;;12.07;5.60;;;;;;;9.11;68.00;101380.22;5029112;27;96774;-71
2024/02/14 06:56:07;;;;;;;11.32;5.80;;;;;;;9.15;67.47;101372.22;5033370;27;97123;-71
2024/02/14 06:58:35;;;;;;;16.35;6.18;;;;;;;9.08;67.65;101375.00;5029327;27;98987;-71
2024/02/14 07:01:03;;;;;;;12.80;6.43;;;;;;;9.13;67.55;101366.09;5032741;27;98863;-69
2024/02/14 07:03:29;;;;;;;12.25;5.85;;;;;;;9.17;67.96;101365.16;5029222;27;97325;-69
2024/02/14 07:05:55;;;;;;;11.30;5.15;;;;;;;9.25;67.00;101365.00;5037831;27;97721;-69
2024/02/14 07:08:22;;;;;;;12.45;5.65;;;;;;;9.10;67.56;101358.28;5032107;27;100996;-75
2024/02/14 07:10:48;;;;;;;9.88;6.43;;;;;;;9.17;67.92;101369.56;5030188;27;99053;-75
2024/02/14 07:13:14;;;;;;;10.55;5.35;;;;;;;9.13;67.89;101368.75;5026161;27;96859;-75
2024/02/14 07:15:42;;;;;;;11.07;5.65;;;;;;;9.25;67.19;101366.78;5030868;27;98213;-69
2024/02/14 07:18:10;;;;;;;11.18;5.20;;;;;;;9.26;67.32;101352.66;5030016;27;97729;-71
2024/02/14 07:20:36;;;;;;;11.90;5.78;;;;;;;9.34;67.51;101361.28;5026456;27;99365;-70
2024/02/14 07:23:04;;;;;;;15.27;5.95;;;;;;;9.48;66.94;101356.59;5023803;27;97153;-70
2024/02/14 07:25:30;;;;;;;12.32;5.00;;;;;;;9.71;65.80;101374.59;5026284;27;96950;-75
2024/02/14 07:27:57;;;;;;;11.88;5.60;;;;;;;9.55;66.26;101372.28;5026849;27;98806;-76
2024/02/14 07:30:23;;;;;;;8.85;5.05;;;;;;;9.75;65.74;101366.56;5014864;27;101939;-76
2024/02/14 07:32:51;;;;;;;10.48;5.30;;;;;;;9.76;65.47;101378.88;5023866;27;97323;-75
2024/02/14 07:35:18;;;;;;;8.60;4.85;;;;;;;9.90;65.04;101392.63;5023618;27;97209;-75
2024/02/14 07:37:44;;;;;;;10.45;5.15;;;;;;;9.97;64.45;101390.72;5029975;27;101911;-75
2024/02/14 07:40:14;;;;;;;14.27;5.25;;;;;;;9.99;64.42;101395.03;5023662;27;99036;-75
2024/02/14 07:42:40;;;;;;;9.57;4.53;;;;;;;10.08;64.39;101385.19;5029512;27;98600;-76
2024/02/14 07:45:07;;;;;;;9.05;4.95;;;;;;;9.93;64.52;101397.81;5028517;27;96796;-75
2024/02/14 07:47:34;;;;;;;8.93;4.80;;;;;;;10.20;63.75;101401.63;5030472;27;99140;-76
2024/02/14 07:50:02;;;;;;;9.77;5.32;;;;;;;10.34;63.39;101396.03;5026760;27;98880;-76
2024/02/14 07:52:29;;;;;;;12.15;4.63;;;;;;;10.35;63.51;101397.75;5026268;27;96930;-76
2024/02/14 07:54:57;;;;;;;15.43;4.65;;;;;;;10.30;63.41;101389.09;5021390;27;96837;-72
2024/02/14 07:57:24;;;;;;;7.10;4.55;;;;;;;10.30;63.38;101389.97;5021081;27;98964;-75
2024/02/14 07:59:51;;;;;;;7.85;4.43;;;;;;;10.29;63.59;101387.34;5022586;27;100562;-76
2024/02/14 08:02:19;;;;;;;14.10;4.68;;;;;;;10.31;64.08;101378.47;5016790;27;97886;-77
2024/02/14 08:04:45;;;;;;;8.68;4.57;;;;;;;10.34;63.85;101385.47;5013517;27;97958;-76
2024/02/14 08:07:13;;;;;;;8.77;4.65;;;;;;;10.19;64.19;101384.03;5025988;27;99700;-76
2024/02/14 08:09:40;;;;;;;6.85;4.25;;;;;;;10.30;63.92;101378.53;5027678;27;98803;-76
2024/02/14 08:12:07;;;;;;;10.65;4.10;;;;;;;10.25;64.41;101369.81;5017764;27;97284;-75
2024/02/14 08:14:33;;;;;;;8.15;4.25;;;;;;;10.32;64.48;101367.00;5026102;27;101160;-76
2024/02/14 08:17:00;;;;;;;6.63;4.10;;;;;;;10.35;64.97;101360.78;5028278;27;98498;-76
2024/02/14 08:19:26;;;;;;;8.02;4.82;;;;;;;10.50;64.83;101368.31;5029334;27;97513;-76
2024/02/14 08:21:57;;;;;;;8.45;4.22;;;;;;;10.72;65.06;101360.69;5022397;27;97492;-76
2024/02/14 08:24:25;;;;;;;7.70;3.95;;;;;;;10.72;64.54;101358.94;5026034;27;97550;-77
2024/02/14 08:26:52;;;;;;;12.02;4.55;;;;;;;10.74;65.25;101348.31;5031524;27;99067;-76
2024/02/14 08:29:18;;;;;;;4.78;3.40;;;;;;;10.93;65.10;101354.84;5027052;27;98999;-76
2024/02/14 08:31:44;;;;;;;9.77;3.88;;;;;;;10.83;65.51;101353.34;5030614;27;97446;-76
2024/02/14 08:34:11;;;;;;;7.78;3.30;;;;;;;10.89;65.56;101352.34;5035103;27;97259;-77
2024/02/14 08:36:40;;;;;;;5.05;3.05;;;;;;;10.76;65.56;101351.81;5034691;27;99076;-76
2024/02/14 08:39:07;;;;;;;5.82;3.33;;;;;;;10.95;65.21;101354.81;5031130;27;98786;-76
2024/02/14 08:41:34;;;;;;;9.43;3.17;;;;;;;11.09;64.74;101356.13;5034905;27;98236;-76
2024/02/14 08:44:01;;;;;;;8.60;3.25;;;;;;;11.09;64.91;101352.66;5028820;27;97167;-77
2024/02/14 08:46:27;;;;;;;10.00;3.80;;;;;;;11.22;65.01;101354.03;5032508;27;98831;-76
2024/02/14 08:48:54;;;;;;;7.40;3.50;;;;;;;11.28;64.74;101356.50;5031900;27;98368;-76
2024/02/14 08:51:21;;;;;;;7.50;3.15;;;;;;;11.16;65.31;101351.53;5032473;27;97396;-76
2024/02/14 08:53:47;;;;;;;7.05;3.10;;;;;;;11.13;65.58;101356.94;5029145;27;99115;-76
2024/02/14 08:56:14;;;;;;;8.98;3.28;;;;;;;11.36;65.46;101349.19;5024647;27;99293;-77
2024/02/14 08:58:41;;;;;;;7.10;3.33;;;;;;;11.27;65.62;101354.78;5029985;27;98578;-76
2024/02/14 09:01:09;;;;;;;4.13;2.55;;;;;;;11.43;65.71;101352.53;5026127;27;96980;-76
2024/02/14 09:03:35;;;;;;;9.68;3.45;;;;;;;11.58;65.37;101352.97;5028654;27;97183;-75
2024/02/14 09:06:03;;;;;;;4.13;2.75;;;;;;;11.69;65.37;101354.41;5029066;27;100015;-75
2024/02/14 09:08:30;;;;;;;6.20;2.88;;;;;;;11.42;66.33;101353.47;5040483;27;98853;-78
2024/02/14 09:10:57;;;;;;;10.90;3.10;;;;;;;11.50;66.13;101351.44;5028473;27;97547;-75
2024/02/14 09:13:24;;;;;;;4.90;3.03;;;;;;;11.30;67.22;101359.97;5021614;27;97273;-75
2024/02/14 09:15:52;;;;;;;5.78;2.72;;;;;;;11.27;67.94;101352.13;5030055;27;99210;-75
2024/02/14 09:18:19;;;;;;;5.72;3.03;;;;;;;11.19;68.25;101351.47;5031109;27;99114;-76
2024/02/14 09:20:46;;;;;;;8.63;3.00;;;;;;;11.28;68.43;101356.50;5031318;27;98435;-75
2024/02/14 09:23:13;;;;;;;6.35;2.88;;;;;;;11.24;69.08;101360.13;5018334;27;97628;-77
2024/02/14 09:25:40;;;;;;;7.45;2.53;;;;;;;11.31;68.79;101353.75;5024189;27;99274;-77
2024/02/14 09:28:07;;;;;;;4.55;2.50;;;;;;;11.22;69.63;101356.69;5033333;27;101806;-76
2024/02/14 09:30:33;;;;;;;5.07;2.67;;;;;;;11.39;69.96;101354.41;5023783;27;98455;-76
2024/02/14 09:33:01;;;;;;;6.20;2.70;;;;;;;11.32;70.76;101358.16;5027391;27;98376;-77
2024/02/14 09:35:27;;;;;;;4.40;2.40;;;;;;;11.42;70.22;101358.75;5026068;27;99169;-77
2024/02/14 09:38:00;;;;;;;9.18;2.47;;;;;;;11.40;71.07;101361.44;5025670;27;99182;-77
2024/02/14 09:40:27;;;;;;;5.57;2.30;;;;;;;11.29;71.48;101352.09;5021877;27;98496;-75
2024/02/14 09:42:57;;;;;;;5.57;2.30;;;;;;;11.19;72.83;101346.19;5029160;27;97048;-77
2024/02/14 09:45:26;;;;;;;4.82;2.40;;;;;;;11.09;73.89;101350.00;5034633;27;99317;-77
2024/02/14 09:47:53;;;;;;;7.57;2.80;;;;;;;11.12;74.23;101356.06;5025439;27;99120;-76
2024/02/14 09:50:24;;;;;;;7.38;2.17;;;;;;;11.14;74.71;101353.38;5021559;27;97118;-76
2024/02/14 09:52:58;;;;;;;7.30;2.15;;;;;;;11.13;75.23;101355.16;5027267;27;96813;-78
2024/02/14 09:55:26;;;;;;;4.18;2.05;;;;;;;10.94;75.88;101355.72;5025348;27;101189;-76
2024/02/14 09:57:55;;;;;;;8.90;2.97;;;;;;;10.67;77.47;101355.53;5029886;27;98166;-77
2024/02/14 10:00:27;;;;;;;4.97;1.85;;;;;;;10.70;78.39;101352.81;5034340;27;96785;-77
2024/02/14 10:02:56;;;;;;;8.27;2.25;;;;;;;10.91;78.61;101355.78;5039832;27;96962;-75
2024/02/14 10:05:23;;;;;;;6.55;3.00;;;;;;;10.91;78.89;101353.13;5029452;27;101780;-75
2024/02/14 10:07:50;;;;;;;6.13;2.20;;;;;;;11.26;78.04;101353.03;5027148;27;97603;-76
2024/02/14 10:10:16;;;;;;;4.68;2.00;;;;;;;11.20;78.45;101347.91;5031023;27;98393;-76
2024/02/14 10:12:43;;;;;;;5.28;2.30;;;;;;;11.21;79.08;101344.38;5026692;27;98553;-75
2024/02/14 10:15:10;;;;;;;4.80;1.92;;;;;;;10.52;81.74;101348.00;5025976;27;99106;-76
2024/02/14 10:17:40;;;;;;;4.65;2.30;;;;;;;10.65;82.17;101354.72;5026120;27;101335;-75
2024/02/14 10:20:08;;;;;;;5.28;2.40;;;;;;;11.04;80.90;101349.25;5024602;27;97672;-76
2024/02/14 10:22:37;;;;;;;6.60;2.08;;;;;;;11.05;80.72;101345.69;5026310;27;98182;-76
2024/02/14 10:25:08;;;;;;;8.60;2.70;;;;;;;11.35;79.88;101341.34;5036552;27;99220;-76
2024/02/14 10:27:35;;;;;;;3.63;2.10;;;;;;;11.41;79.77;101341.16;5016010;27;98175;-75
2024/02/14 10:30:01;;;;;;;4.10;2.03;;;;;;;11.38;79.69;101344.75;5024763;27;97002;-75
2024/02/14 10:32:28;;;;;;;;;;;;;;;11.40;79.25;101336.75;5025320;27;98381;-75
2024/02/14 10:34:54;;;;;;;5.28;1.80;;;;;;;11.24;80.20;101338.09;5027561;27;98354;-72
2024/02/14 10:37:22;;;;;;;6.70;2.55;;;;;;;11.40;80.49;101340.28;5019857;27;99027;-75
2024/02/14 10:39:52;;;;;;;13.80;2.70;;;;;;;11.50;80.33;101340.84;5027420;27;97190;-76
2024/02/14 10:42:18;;;;;;;4.70;2.40;;;;;;;11.71;78.83;101331.41;5020612;27;98952;-76
2024/02/14 10:44:49;;;;;;;6.18;2.17;;;;;;;11.67;78.69;101329.78;5027363;27;99251;-75
2024/02/14 10:47:20;;;;;;;5.13;2.50;;;;;;;11.49;80.05;101328.53;5030527;27;99989;-76
2024/02/14 10:49:47;;;;;;;6.40;2.33;;;;;;;11.77;79.13;101328.59;5022341;27;98293;-70
2024/02/14 10:52:17;;;;;;;3.50;2.45;;;;;;;11.64;79.17;101329.84;5021421;27;96922;-69
2024/02/14 10:54:46;;;;;;;6.45;2.20;;;;;;;11.91;79.02;101331.69;5014492;27;99482;-69
2024/02/14 10:57:17;;;;;;;30.38;13.25;;;;;;;12.07;78.79;101330.28;5019471;27;100129;-70
2024/02/14 10:59:48;;;;;;;5.93;3.28;;;;;;;12.16;78.70;101327.31;5020086;27;98206;-70
2024/02/14 11:02:15;;;;;;;6.65;2.78;;;;;;;12.07;78.38;101324.13;5024234;27;97394;-70
2024/02/14 11:04:41;;;;;;;4.20;2.67;;;;;;;12.33;78.33;101330.31;5018044;27;99378;-69
2024/02/14 11:07:10;;;;;;;6.07;2.33;;;;;;;12.07;78.54;101321.47;5026676;27;97707;-69
2024/02/14 11:09:37;;;;;;;9.30;5.78;;;;;;;12.20;78.81;101322.81;5028778;27;96900;-70
2024/02/14 11:12:08;;;;;;;4.78;2.28;;;;;;;12.01;79.90;101316.38;5031608;27;97802;-69
2024/02/14 11:14:36;;;;;;;6.47;2.80;;;;;;;12.12;79.34;101319.53;5026312;27;99328;-68
2024/02/14 11:17:03;;;;;;;3.15;2.50;;;;;;;12.10;79.61;101319.59;5033784;27;98811;-69
2024/02/14 11:19:35;;;;;;;5.20;2.65;;;;;;;11.74;81.36;101318.13;5029584;27;96844;-69
2024/02/14 11:22:12;;;;;;;6.20;2.50;;;;;;;11.90;81.62;101311.41;5022631;27;99133;-69
2024/02/14 11:24:38;;;;;;;8.25;2.60;;;;;;;11.65;83.06;101313.94;5030492;27;99091;-70
2024/02/14 11:27:10;;;;;;;9.35;2.92;;;;;;;11.79;82.80;101324.13;5032060;27;101711;-69
2024/02/14 11:29:39;;;;;;;11.45;5.38;;;;;;;11.94;81.99;101321.88;5033874;27;96826;-69